sensor_id;sensor_type;location;lat;lon;timestamp;P1;durP1;ratioP1;P2;durP2;ratioP2
41817;SDS011;27493;51.730;5.294;2023-04-30T00:01:12;14.93;;;9.57;;
41817;SDS011;27493;51.730;5.294;2023-04-30T00:03:38;15.90;;;10.73;;
41817;SDS011;27493;51.730;5.294;2023-04-30T00:06:03;13.90;;;9.00;;
41817;SDS011;27493;51.730;5.294;2023-04-30T00:08:28;14.60;;;9.67;;
41817;SDS011;27493;51.730;5.294;2023-04-30T00:10:54;15.27;;;9.77;;
41817;SDS011;27493;51.730;5.294;2023-04-30T00:13:19;15.50;;;10.43;;
41817;SDS011;27493;51.730;5.294;2023-04-30T00:15:44;13.63;;;9.87;;
41817;SDS011;27493;51.730;5.294;2023-04-30T00:18:09;14.07;;;9.27;;
41817;SDS011;27493;51.730;5.294;2023-04-30T00:20:35;15.83;;;9.93;;
41817;SDS011;27493;51.730;5.294;2023-04-30T00:23:00;16.27;;;10.20;;
41817;SDS011;27493;51.730;5.294;2023-04-30T00:25:25;14.10;;;9.57;;
41817;SDS011;27493;51.730;5.294;2023-04-30T00:27:50;13.80;;;9.80;;
41817;SDS011;27493;51.730;5.294;2023-04-30T00:30:15;17.50;;;10.50;;
41817;SDS011;27493;51.730;5.294;2023-04-30T00:32:41;15.17;;;10.10;;
41817;SDS011;27493;51.730;5.294;2023-04-30T00:35:06;16.53;;;10.97;;
41817;SDS011;27493;51.730;5.294;2023-04-30T00:37:32;13.87;;;9.73;;
41817;SDS011;27493;51.730;5.294;2023-04-30T00:39:57;18.47;;;10.77;;
41817;SDS011;27493;51.730;5.294;2023-04-30T00:42:22;16.50;;;9.73;;
41817;SDS011;27493;51.730;5.294;2023-04-30T00:44:48;16.67;;;10.53;;
41817;SDS011;27493;51.730;5.294;2023-04-30T00:47:13;19.03;;;9.87;;
41817;SDS011;27493;51.730;5.294;2023-04-30T00:49:38;16.67;;;10.17;;
41817;SDS011;27493;51.730;5.294;2023-04-30T00:52:03;15.33;;;10.23;;
41817;SDS011;27493;51.730;5.294;2023-04-30T00:54:29;14.87;;;9.37;;
41817;SDS011;27493;51.730;5.294;2023-04-30T00:56:54;17.80;;;10.37;;
41817;SDS011;27493;51.730;5.294;2023-04-30T00:59:19;18.20;;;10.00;;
41817;SDS011;27493;51.730;5.294;2023-04-30T01:01:45;16.63;;;9.77;;
41817;SDS011;27493;51.730;5.294;2023-04-30T01:04:10;16.57;;;10.47;;
41817;SDS011;27493;51.730;5.294;2023-04-30T01:06:36;18.23;;;10.63;;
41817;SDS011;27493;51.730;5.294;2023-04-30T01:09:01;15.27;;;10.60;;
41817;SDS011;27493;51.730;5.294;2023-04-30T01:11:33;15.30;;;9.80;;
41817;SDS011;27493;51.730;5.294;2023-04-30T01:16:27;12.83;;;9.30;;
41817;SDS011;27493;51.730;5.294;2023-04-30T01:18:58;17.00;;;9.83;;
41817;SDS011;27493;51.730;5.294;2023-04-30T01:21:24;14.63;;;9.40;;
41817;SDS011;27493;51.730;5.294;2023-04-30T01:24:05;15.77;;;10.57;;
41817;SDS011;27493;51.730;5.294;2023-04-30T01:29:15;14.10;;;9.70;;
41817;SDS011;27493;51.730;5.294;2023-04-30T01:31:42;17.20;;;10.73;;
41817;SDS011;27493;51.730;5.294;2023-04-30T01:34:07;16.10;;;10.20;;
41817;SDS011;27493;51.730;5.294;2023-04-30T01:36:44;15.07;;;9.83;;
41817;SDS011;27493;51.730;5.294;2023-04-30T01:52:37;14.57;;;9.77;;
41817;SDS011;27493;51.730;5.294;2023-04-30T01:55:07;15.10;;;9.97;;
41817;SDS011;27493;51.730;5.294;2023-04-30T01:57:36;15.43;;;9.63;;
41817;SDS011;27493;51.730;5.294;2023-04-30T02:00:02;14.80;;;10.07;;
41817;SDS011;27493;51.730;5.294;2023-04-30T02:02:28;16.03;;;9.60;;
41817;SDS011;27493;51.730;5.294;2023-04-30T02:04:53;14.60;;;10.27;;
41817;SDS011;27493;51.730;5.294;2023-04-30T02:07:35;13.00;;;9.60;;
41817;SDS011;27493;51.730;5.294;2023-04-30T02:10:02;19.23;;;9.93;;
41817;SDS011;27493;51.730;5.294;2023-04-30T02:12:27;19.00;;;10.20;;
41817;SDS011;27493;51.730;5.294;2023-04-30T02:14:54;16.63;;;9.87;;
41817;SDS011;27493;51.730;5.294;2023-04-30T02:17:19;15.47;;;10.00;;
41817;SDS011;27493;51.730;5.294;2023-04-30T02:19:44;16.33;;;10.60;;
41817;SDS011;27493;51.730;5.294;2023-04-30T02:22:10;15.33;;;10.23;;
41817;SDS011;27493;51.730;5.294;2023-04-30T02:24:35;16.87;;;10.77;;
41817;SDS011;27493;51.730;5.294;2023-04-30T02:27:00;15.10;;;9.73;;
41817;SDS011;27493;51.730;5.294;2023-04-30T02:29:25;16.57;;;10.27;;
41817;SDS011;27493;51.730;5.294;2023-04-30T02:31:50;14.60;;;9.90;;
41817;SDS011;27493;51.730;5.294;2023-04-30T02:34:16;16.03;;;10.83;;
41817;SDS011;27493;51.730;5.294;2023-04-30T02:36:41;17.20;;;9.77;;
41817;SDS011;27493;51.730;5.294;2023-04-30T02:39:06;17.40;;;10.30;;
41817;SDS011;27493;51.730;5.294;2023-04-30T02:41:32;14.70;;;10.47;;
41817;SDS011;27493;51.730;5.294;2023-04-30T02:43:58;16.10;;;10.13;;
41817;SDS011;27493;51.730;5.294;2023-04-30T02:46:23;16.20;;;10.37;;
41817;SDS011;27493;51.730;5.294;2023-04-30T02:48:48;14.43;;;9.77;;
41817;SDS011;27493;51.730;5.294;2023-04-30T02:51:13;14.20;;;10.43;;
41817;SDS011;27493;51.730;5.294;2023-04-30T02:53:38;16.07;;;10.37;;
41817;SDS011;27493;51.730;5.294;2023-04-30T02:56:04;14.00;;;10.10;;
41817;SDS011;27493;51.730;5.294;2023-04-30T02:58:29;17.73;;;10.47;;
41817;SDS011;27493;51.730;5.294;2023-04-30T03:00:54;16.00;;;10.60;;
41817;SDS011;27493;51.730;5.294;2023-04-30T03:03:20;15.00;;;9.73;;
41817;SDS011;27493;51.730;5.294;2023-04-30T03:05:45;16.47;;;10.53;;
41817;SDS011;27493;51.730;5.294;2023-04-30T03:08:10;14.40;;;9.67;;
41817;SDS011;27493;51.730;5.294;2023-04-30T03:10:35;15.37;;;10.07;;
41817;SDS011;27493;51.730;5.294;2023-04-30T03:13:00;15.63;;;9.83;;
41817;SDS011;27493;51.730;5.294;2023-04-30T03:15:25;14.47;;;10.50;;
41817;SDS011;27493;51.730;5.294;2023-04-30T03:17:51;16.20;;;10.73;;
41817;SDS011;27493;51.730;5.294;2023-04-30T03:20:16;17.60;;;10.53;;
41817;SDS011;27493;51.730;5.294;2023-04-30T03:22:41;16.13;;;10.67;;
41817;SDS011;27493;51.730;5.294;2023-04-30T03:25:06;13.80;;;9.90;;
41817;SDS011;27493;51.730;5.294;2023-04-30T03:27:31;16.67;;;10.60;;
41817;SDS011;27493;51.730;5.294;2023-04-30T03:29:57;15.57;;;10.27;;
41817;SDS011;27493;51.730;5.294;2023-04-30T03:32:22;16.50;;;10.53;;
41817;SDS011;27493;51.730;5.294;2023-04-30T03:34:47;15.50;;;11.17;;
41817;SDS011;27493;51.730;5.294;2023-04-30T03:37:12;16.27;;;10.47;;
41817;SDS011;27493;51.730;5.294;2023-04-30T03:39:37;16.67;;;11.23;;
41817;SDS011;27493;51.730;5.294;2023-04-30T03:42:02;15.07;;;10.00;;
41817;SDS011;27493;51.730;5.294;2023-04-30T03:44:28;14.70;;;10.60;;
41817;SDS011;27493;51.730;5.294;2023-04-30T03:46:53;15.53;;;10.00;;
41817;SDS011;27493;51.730;5.294;2023-04-30T03:49:18;19.47;;;10.67;;
41817;SDS011;27493;51.730;5.294;2023-04-30T03:51:43;16.93;;;11.20;;
41817;SDS011;27493;51.730;5.294;2023-04-30T03:54:09;16.13;;;11.10;;
41817;SDS011;27493;51.730;5.294;2023-04-30T03:56:34;17.33;;;10.73;;
41817;SDS011;27493;51.730;5.294;2023-04-30T03:59:00;16.40;;;11.20;;
41817;SDS011;27493;51.730;5.294;2023-04-30T04:01:25;17.23;;;10.93;;
41817;SDS011;27493;51.730;5.294;2023-04-30T04:03:50;17.23;;;11.37;;
41817;SDS011;27493;51.730;5.294;2023-04-30T04:06:16;17.47;;;11.23;;
41817;SDS011;27493;51.730;5.294;2023-04-30T04:08:41;17.47;;;10.50;;
41817;SDS011;27493;51.730;5.294;2023-04-30T04:11:09;18.27;;;11.23;;
41817;SDS011;27493;51.730;5.294;2023-04-30T04:13:35;16.00;;;10.80;;
41817;SDS011;27493;51.730;5.294;2023-04-30T04:16:00;15.77;;;10.30;;
41817;SDS011;27493;51.730;5.294;2023-04-30T04:18:25;14.93;;;11.03;;
41817;SDS011;27493;51.730;5.294;2023-04-30T04:20:50;17.43;;;11.47;;
41817;SDS011;27493;51.730;5.294;2023-04-30T04:23:16;15.80;;;10.20;;
41817;SDS011;27493;51.730;5.294;2023-04-30T04:25:41;17.50;;;10.60;;
41817;SDS011;27493;51.730;5.294;2023-04-30T04:28:08;14.67;;;10.80;;
41817;SDS011;27493;51.730;5.294;2023-04-30T04:30:33;15.30;;;10.47;;
41817;SDS011;27493;51.730;5.294;2023-04-30T04:32:58;18.20;;;11.63;;
41817;SDS011;27493;51.730;5.294;2023-04-30T04:35:24;14.70;;;10.50;;
41817;SDS011;27493;51.730;5.294;2023-04-30T04:37:49;15.57;;;10.60;;
41817;SDS011;27493;51.730;5.294;2023-04-30T04:40:14;16.83;;;10.73;;
41817;SDS011;27493;51.730;5.294;2023-04-30T04:42:40;17.90;;;10.77;;
41817;SDS011;27493;51.730;5.294;2023-04-30T04:45:06;20.10;;;11.87;;
41817;SDS011;27493;51.730;5.294;2023-04-30T04:47:32;17.07;;;10.97;;
41817;SDS011;27493;51.730;5.294;2023-04-30T04:49:57;17.83;;;11.67;;
41817;SDS011;27493;51.730;5.294;2023-04-30T04:52:22;16.00;;;10.90;;
41817;SDS011;27493;51.730;5.294;2023-04-30T04:54:47;17.20;;;11.50;;
41817;SDS011;27493;51.730;5.294;2023-04-30T04:57:13;16.63;;;11.30;;
41817;SDS011;27493;51.730;5.294;2023-04-30T04:59:38;13.57;;;10.23;;
41817;SDS011;27493;51.730;5.294;2023-04-30T05:02:03;17.50;;;11.27;;
41817;SDS011;27493;51.730;5.294;2023-04-30T05:04:28;15.20;;;10.70;;
41817;SDS011;27493;51.730;5.294;2023-04-30T05:06:54;18.60;;;10.77;;
41817;SDS011;27493;51.730;5.294;2023-04-30T05:09:19;15.33;;;10.80;;
41817;SDS011;27493;51.730;5.294;2023-04-30T05:11:44;16.60;;;10.83;;
41817;SDS011;27493;51.730;5.294;2023-04-30T05:14:10;16.77;;;11.80;;
41817;SDS011;27493;51.730;5.294;2023-04-30T05:16:35;16.33;;;10.93;;
41817;SDS011;27493;51.730;5.294;2023-04-30T05:19:00;20.07;;;11.60;;
41817;SDS011;27493;51.730;5.294;2023-04-30T05:21:25;17.20;;;11.37;;
41817;SDS011;27493;51.730;5.294;2023-04-30T05:23:53;18.27;;;12.10;;
41817;SDS011;27493;51.730;5.294;2023-04-30T05:26:18;18.17;;;11.80;;
41817;SDS011;27493;51.730;5.294;2023-04-30T05:28:43;18.57;;;12.33;;
41817;SDS011;27493;51.730;5.294;2023-04-30T05:31:09;18.63;;;12.57;;
41817;SDS011;27493;51.730;5.294;2023-04-30T05:33:34;19.00;;;11.97;;
41817;SDS011;27493;51.730;5.294;2023-04-30T05:36:00;16.50;;;11.77;;
41817;SDS011;27493;51.730;5.294;2023-04-30T05:38:26;17.83;;;12.47;;
41817;SDS011;27493;51.730;5.294;2023-04-30T05:40:51;17.07;;;11.90;;
41817;SDS011;27493;51.730;5.294;2023-04-30T05:43:16;16.93;;;12.20;;
41817;SDS011;27493;51.730;5.294;2023-04-30T05:45:41;15.33;;;11.43;;
41817;SDS011;27493;51.730;5.294;2023-04-30T05:48:06;17.03;;;12.47;;
41817;SDS011;27493;51.730;5.294;2023-04-30T05:50:32;18.57;;;12.10;;
41817;SDS011;27493;51.730;5.294;2023-04-30T05:52:57;18.23;;;11.63;;
41817;SDS011;27493;51.730;5.294;2023-04-30T05:55:22;17.07;;;11.70;;
41817;SDS011;27493;51.730;5.294;2023-04-30T05:57:47;17.70;;;12.33;;
41817;SDS011;27493;51.730;5.294;2023-04-30T06:00:12;17.27;;;12.17;;
41817;SDS011;27493;51.730;5.294;2023-04-30T06:02:38;18.97;;;12.47;;
41817;SDS011;27493;51.730;5.294;2023-04-30T06:05:03;14.30;;;10.93;;
41817;SDS011;27493;51.730;5.294;2023-04-30T06:07:29;18.60;;;11.93;;
41817;SDS011;27493;51.730;5.294;2023-04-30T06:09:54;18.47;;;11.67;;
41817;SDS011;27493;51.730;5.294;2023-04-30T06:12:19;17.17;;;11.57;;
41817;SDS011;27493;51.730;5.294;2023-04-30T06:14:45;15.53;;;11.47;;
41817;SDS011;27493;51.730;5.294;2023-04-30T06:17:11;17.43;;;11.63;;
41817;SDS011;27493;51.730;5.294;2023-04-30T06:19:36;15.90;;;11.73;;
41817;SDS011;27493;51.730;5.294;2023-04-30T06:22:02;14.13;;;10.60;;
41817;SDS011;27493;51.730;5.294;2023-04-30T06:24:28;16.30;;;11.40;;
41817;SDS011;27493;51.730;5.294;2023-04-30T06:26:54;13.67;;;10.50;;
41817;SDS011;27493;51.730;5.294;2023-04-30T06:29:19;15.73;;;10.63;;
41817;SDS011;27493;51.730;5.294;2023-04-30T06:31:44;16.17;;;10.80;;
41817;SDS011;27493;51.730;5.294;2023-04-30T06:34:09;14.70;;;10.13;;
41817;SDS011;27493;51.730;5.294;2023-04-30T06:36:35;12.00;;;9.90;;
41817;SDS011;27493;51.730;5.294;2023-04-30T06:39:00;14.43;;;10.27;;
41817;SDS011;27493;51.730;5.294;2023-04-30T06:41:25;12.43;;;9.40;;
41817;SDS011;27493;51.730;5.294;2023-04-30T06:43:50;14.30;;;9.63;;
41817;SDS011;27493;51.730;5.294;2023-04-30T06:46:16;15.53;;;10.30;;
41817;SDS011;27493;51.730;5.294;2023-04-30T06:48:41;17.57;;;9.73;;
41817;SDS011;27493;51.730;5.294;2023-04-30T06:51:06;12.73;;;9.67;;
41817;SDS011;27493;51.730;5.294;2023-04-30T06:53:31;14.80;;;9.93;;
41817;SDS011;27493;51.730;5.294;2023-04-30T06:55:56;12.63;;;9.33;;
41817;SDS011;27493;51.730;5.294;2023-04-30T06:58:22;15.67;;;10.00;;
41817;SDS011;27493;51.730;5.294;2023-04-30T07:00:47;14.63;;;10.30;;
41817;SDS011;27493;51.730;5.294;2023-04-30T07:03:12;13.40;;;9.90;;
41817;SDS011;27493;51.730;5.294;2023-04-30T07:05:38;13.47;;;9.43;;
41817;SDS011;27493;51.730;5.294;2023-04-30T07:08:04;15.53;;;9.90;;
41817;SDS011;27493;51.730;5.294;2023-04-30T07:10:29;13.67;;;10.43;;
41817;SDS011;27493;51.730;5.294;2023-04-30T07:12:55;14.67;;;9.23;;
41817;SDS011;27493;51.730;5.294;2023-04-30T07:15:21;12.97;;;9.43;;
41817;SDS011;27493;51.730;5.294;2023-04-30T07:17:46;12.63;;;9.93;;
41817;SDS011;27493;51.730;5.294;2023-04-30T07:20:11;14.50;;;10.17;;
41817;SDS011;27493;51.730;5.294;2023-04-30T07:22:38;13.97;;;10.83;;
41817;SDS011;27493;51.730;5.294;2023-04-30T07:25:04;13.13;;;10.03;;
41817;SDS011;27493;51.730;5.294;2023-04-30T07:27:29;13.23;;;10.07;;
41817;SDS011;27493;51.730;5.294;2023-04-30T07:29:54;15.17;;;10.43;;
41817;SDS011;27493;51.730;5.294;2023-04-30T07:32:20;18.40;;;10.73;;
41817;SDS011;27493;51.730;5.294;2023-04-30T07:37:48;16.40;;;11.17;;
41817;SDS011;27493;51.730;5.294;2023-04-30T07:40:13;16.90;;;9.93;;
41817;SDS011;27493;51.730;5.294;2023-04-30T07:45:41;14.50;;;9.80;;
41817;SDS011;27493;51.730;5.294;2023-04-30T07:48:07;13.03;;;9.43;;
41817;SDS011;27493;51.730;5.294;2023-04-30T07:50:32;16.17;;;10.90;;
41817;SDS011;27493;51.730;5.294;2023-04-30T07:52:58;16.00;;;10.07;;
41817;SDS011;27493;51.730;5.294;2023-04-30T07:55:23;14.80;;;10.27;;
41817;SDS011;27493;51.730;5.294;2023-04-30T07:57:48;14.40;;;10.00;;
41817;SDS011;27493;51.730;5.294;2023-04-30T08:00:13;15.33;;;10.03;;
41817;SDS011;27493;51.730;5.294;2023-04-30T08:02:39;12.87;;;9.80;;
41817;SDS011;27493;51.730;5.294;2023-04-30T08:05:04;11.83;;;9.13;;
41817;SDS011;27493;51.730;5.294;2023-04-30T08:07:30;15.20;;;10.50;;
41817;SDS011;27493;51.730;5.294;2023-04-30T08:09:55;14.93;;;10.40;;
41817;SDS011;27493;51.730;5.294;2023-04-30T08:12:20;10.53;;;9.13;;
41817;SDS011;27493;51.730;5.294;2023-04-30T08:14:45;13.30;;;9.57;;
41817;SDS011;27493;51.730;5.294;2023-04-30T08:17:10;13.17;;;9.37;;
41817;SDS011;27493;51.730;5.294;2023-04-30T08:19:36;15.83;;;10.53;;
41817;SDS011;27493;51.730;5.294;2023-04-30T08:22:01;14.67;;;10.20;;
41817;SDS011;27493;51.730;5.294;2023-04-30T08:24:26;13.40;;;10.07;;
41817;SDS011;27493;51.730;5.294;2023-04-30T08:26:51;14.23;;;9.87;;
41817;SDS011;27493;51.730;5.294;2023-04-30T08:29:16;11.93;;;9.70;;
41817;SDS011;27493;51.730;5.294;2023-04-30T08:31:41;14.87;;;10.40;;
41817;SDS011;27493;51.730;5.294;2023-04-30T08:34:07;13.90;;;9.87;;
41817;SDS011;27493;51.730;5.294;2023-04-30T08:36:32;13.17;;;10.43;;
41817;SDS011;27493;51.730;5.294;2023-04-30T08:38:57;13.00;;;9.80;;
41817;SDS011;27493;51.730;5.294;2023-04-30T08:41:24;13.67;;;9.77;;
41817;SDS011;27493;51.730;5.294;2023-04-30T08:43:51;14.73;;;9.30;;
41817;SDS011;27493;51.730;5.294;2023-04-30T08:46:16;14.47;;;10.23;;
41817;SDS011;27493;51.730;5.294;2023-04-30T08:48:42;12.60;;;9.57;;
41817;SDS011;27493;51.730;5.294;2023-04-30T08:51:08;10.93;;;9.30;;
41817;SDS011;27493;51.730;5.294;2023-04-30T08:53:36;13.40;;;9.67;;
41817;SDS011;27493;51.730;5.294;2023-04-30T08:56:04;11.20;;;8.90;;
41817;SDS011;27493;51.730;5.294;2023-04-30T08:58:30;14.47;;;9.00;;
41817;SDS011;27493;51.730;5.294;2023-04-30T09:00:56;12.00;;;9.00;;
41817;SDS011;27493;51.730;5.294;2023-04-30T09:03:22;11.40;;;8.70;;
41817;SDS011;27493;51.730;5.294;2023-04-30T09:05:47;10.87;;;8.50;;
41817;SDS011;27493;51.730;5.294;2023-04-30T09:08:15;11.47;;;9.20;;
41817;SDS011;27493;51.730;5.294;2023-04-30T09:10:41;13.13;;;8.90;;
41817;SDS011;27493;51.730;5.294;2023-04-30T09:13:07;10.90;;;8.90;;
41817;SDS011;27493;51.730;5.294;2023-04-30T09:15:34;10.63;;;8.70;;
41817;SDS011;27493;51.730;5.294;2023-04-30T09:18:12;12.73;;;9.63;;
41817;SDS011;27493;51.730;5.294;2023-04-30T09:20:58;10.20;;;8.00;;
41817;SDS011;27493;51.730;5.294;2023-04-30T09:23:25;13.77;;;8.63;;
41817;SDS011;27493;51.730;5.294;2023-04-30T09:25:51;12.87;;;9.13;;
41817;SDS011;27493;51.730;5.294;2023-04-30T09:28:16;14.33;;;9.10;;
41817;SDS011;27493;51.730;5.294;2023-04-30T09:30:42;10.93;;;9.20;;
41817;SDS011;27493;51.730;5.294;2023-04-30T09:33:07;12.13;;;9.53;;
41817;SDS011;27493;51.730;5.294;2023-04-30T09:35:34;10.73;;;8.60;;
41817;SDS011;27493;51.730;5.294;2023-04-30T09:38:00;11.87;;;8.70;;
41817;SDS011;27493;51.730;5.294;2023-04-30T09:40:35;15.33;;;8.87;;
41817;SDS011;27493;51.730;5.294;2023-04-30T09:43:01;12.20;;;9.10;;
41817;SDS011;27493;51.730;5.294;2023-04-30T09:45:37;10.47;;;8.43;;
41817;SDS011;27493;51.730;5.294;2023-04-30T09:48:02;10.57;;;8.00;;
41817;SDS011;27493;51.730;5.294;2023-04-30T09:50:31;11.17;;;8.67;;
41817;SDS011;27493;51.730;5.294;2023-04-30T09:53:04;11.13;;;7.80;;
41817;SDS011;27493;51.730;5.294;2023-04-30T09:55:29;10.33;;;8.23;;
41817;SDS011;27493;51.730;5.294;2023-04-30T09:57:55;8.90;;;7.27;;
41817;SDS011;27493;51.730;5.294;2023-04-30T10:00:20;9.80;;;7.63;;
41817;SDS011;27493;51.730;5.294;2023-04-30T10:02:45;8.60;;;7.30;;
41817;SDS011;27493;51.730;5.294;2023-04-30T10:05:11;7.63;;;6.50;;
41817;SDS011;27493;51.730;5.294;2023-04-30T10:07:36;8.20;;;6.70;;
41817;SDS011;27493;51.730;5.294;2023-04-30T10:10:03;8.07;;;6.70;;
41817;SDS011;27493;51.730;5.294;2023-04-30T10:12:44;7.47;;;5.87;;
41817;SDS011;27493;51.730;5.294;2023-04-30T10:17:35;6.80;;;6.07;;
41817;SDS011;27493;51.730;5.294;2023-04-30T10:20:05;8.70;;;6.70;;
41817;SDS011;27493;51.730;5.294;2023-04-30T10:22:31;8.47;;;6.87;;
41817;SDS011;27493;51.730;5.294;2023-04-30T10:24:57;9.83;;;7.50;;
41817;SDS011;27493;51.730;5.294;2023-04-30T10:27:23;9.17;;;7.47;;
41817;SDS011;27493;51.730;5.294;2023-04-30T10:29:48;8.73;;;7.20;;
41817;SDS011;27493;51.730;5.294;2023-04-30T10:32:14;7.97;;;6.23;;
41817;SDS011;27493;51.730;5.294;2023-04-30T10:34:42;7.87;;;6.50;;
41817;SDS011;27493;51.730;5.294;2023-04-30T10:37:33;9.13;;;6.70;;
41817;SDS011;27493;51.730;5.294;2023-04-30T10:39:55;8.33;;;6.90;;
41817;SDS011;27493;51.730;5.294;2023-04-30T10:42:20;9.13;;;7.10;;
41817;SDS011;27493;51.730;5.294;2023-04-30T10:44:46;11.10;;;7.57;;
41817;SDS011;27493;51.730;5.294;2023-04-30T10:47:12;9.73;;;7.03;;
41817;SDS011;27493;51.730;5.294;2023-04-30T10:49:37;10.23;;;8.27;;
41817;SDS011;27493;51.730;5.294;2023-04-30T10:52:03;9.97;;;7.67;;
41817;SDS011;27493;51.730;5.294;2023-04-30T10:54:35;8.60;;;6.90;;
41817;SDS011;27493;51.730;5.294;2023-04-30T10:57:14;8.73;;;7.70;;
41817;SDS011;27493;51.730;5.294;2023-04-30T10:59:41;9.77;;;7.60;;
41817;SDS011;27493;51.730;5.294;2023-04-30T11:02:09;9.50;;;7.70;;
41817;SDS011;27493;51.730;5.294;2023-04-30T11:04:34;9.03;;;7.03;;
41817;SDS011;27493;51.730;5.294;2023-04-30T11:07:20;8.50;;;7.47;;
41817;SDS011;27493;51.730;5.294;2023-04-30T11:09:49;9.47;;;7.20;;
41817;SDS011;27493;51.730;5.294;2023-04-30T11:12:18;9.63;;;7.47;;
41817;SDS011;27493;51.730;5.294;2023-04-30T11:14:44;9.97;;;7.80;;
41817;SDS011;27493;51.730;5.294;2023-04-30T11:17:10;9.20;;;7.53;;
41817;SDS011;27493;51.730;5.294;2023-04-30T11:19:40;9.33;;;7.87;;
41817;SDS011;27493;51.730;5.294;2023-04-30T11:27:21;10.57;;;8.17;;
41817;SDS011;27493;51.730;5.294;2023-04-30T11:29:47;8.93;;;7.53;;
41817;SDS011;27493;51.730;5.294;2023-04-30T11:32:12;12.13;;;9.03;;
41817;SDS011;27493;51.730;5.294;2023-04-30T11:34:38;8.80;;;7.63;;
41817;SDS011;27493;51.730;5.294;2023-04-30T11:37:04;8.80;;;7.40;;
41817;SDS011;27493;51.730;5.294;2023-04-30T11:39:30;8.27;;;7.33;;
41817;SDS011;27493;51.730;5.294;2023-04-30T11:41:56;10.93;;;7.70;;
41817;SDS011;27493;51.730;5.294;2023-04-30T11:44:22;8.33;;;7.50;;
41817;SDS011;27493;51.730;5.294;2023-04-30T11:46:47;9.47;;;7.97;;
41817;SDS011;27493;51.730;5.294;2023-04-30T11:49:13;9.73;;;7.87;;
41817;SDS011;27493;51.730;5.294;2023-04-30T11:51:38;10.50;;;7.77;;
41817;SDS011;27493;51.730;5.294;2023-04-30T11:54:06;10.70;;;8.53;;
41817;SDS011;27493;51.730;5.294;2023-04-30T11:56:32;9.33;;;8.07;;
41817;SDS011;27493;51.730;5.294;2023-04-30T11:59:01;9.87;;;7.80;;
41817;SDS011;27493;51.730;5.294;2023-04-30T12:01:33;9.03;;;8.13;;
41817;SDS011;27493;51.730;5.294;2023-04-30T12:03:58;11.37;;;7.90;;
41817;SDS011;27493;51.730;5.294;2023-04-30T12:06:25;8.67;;;7.77;;
41817;SDS011;27493;51.730;5.294;2023-04-30T12:08:54;10.40;;;7.43;;
41817;SDS011;27493;51.730;5.294;2023-04-30T12:11:20;7.37;;;6.63;;
41817;SDS011;27493;51.730;5.294;2023-04-30T12:13:53;8.33;;;7.40;;
41817;SDS011;27493;51.730;5.294;2023-04-30T12:16:18;9.03;;;6.83;;
41817;SDS011;27493;51.730;5.294;2023-04-30T12:18:44;7.97;;;7.13;;
41817;SDS011;27493;51.730;5.294;2023-04-30T12:21:09;7.80;;;7.00;;
41817;SDS011;27493;51.730;5.294;2023-04-30T12:23:34;7.70;;;6.27;;
41817;SDS011;27493;51.730;5.294;2023-04-30T12:26:00;6.83;;;6.17;;
41817;SDS011;27493;51.730;5.294;2023-04-30T12:28:25;8.67;;;7.30;;
41817;SDS011;27493;51.730;5.294;2023-04-30T12:30:52;7.27;;;6.37;;
41817;SDS011;27493;51.730;5.294;2023-04-30T12:33:17;9.30;;;6.77;;
41817;SDS011;27493;51.730;5.294;2023-04-30T12:35:42;8.47;;;5.80;;
41817;SDS011;27493;51.730;5.294;2023-04-30T12:38:08;6.57;;;5.93;;
41817;SDS011;27493;51.730;5.294;2023-04-30T12:40:33;6.40;;;5.67;;
41817;SDS011;27493;51.730;5.294;2023-04-30T12:43:01;8.23;;;6.10;;
41817;SDS011;27493;51.730;5.294;2023-04-30T12:45:45;8.33;;;6.10;;
41817;SDS011;27493;51.730;5.294;2023-04-30T12:48:11;7.57;;;5.40;;
41817;SDS011;27493;51.730;5.294;2023-04-30T12:50:36;7.47;;;5.70;;
41817;SDS011;27493;51.730;5.294;2023-04-30T12:53:03;5.30;;;4.80;;
41817;SDS011;27493;51.730;5.294;2023-04-30T12:55:29;6.83;;;5.53;;
41817;SDS011;27493;51.730;5.294;2023-04-30T12:58:01;5.63;;;4.77;;
41817;SDS011;27493;51.730;5.294;2023-04-30T13:00:26;7.63;;;4.70;;
41817;SDS011;27493;51.730;5.294;2023-04-30T13:02:52;6.17;;;4.50;;
41817;SDS011;27493;51.730;5.294;2023-04-30T13:05:17;6.47;;;5.13;;
41817;SDS011;27493;51.730;5.294;2023-04-30T13:07:42;6.30;;;4.77;;
41817;SDS011;27493;51.730;5.294;2023-04-30T13:10:08;6.43;;;4.63;;
41817;SDS011;27493;51.730;5.294;2023-04-30T13:12:33;6.07;;;4.60;;
41817;SDS011;27493;51.730;5.294;2023-04-30T13:14:58;5.03;;;4.20;;
41817;SDS011;27493;51.730;5.294;2023-04-30T13:17:24;5.07;;;4.47;;
41817;SDS011;27493;51.730;5.294;2023-04-30T13:19:50;4.97;;;4.00;;
41817;SDS011;27493;51.730;5.294;2023-04-30T13:22:15;4.60;;;4.10;;
41817;SDS011;27493;51.730;5.294;2023-04-30T13:24:40;5.57;;;4.00;;
41817;SDS011;27493;51.730;5.294;2023-04-30T13:27:05;5.40;;;4.30;;
41817;SDS011;27493;51.730;5.294;2023-04-30T13:29:31;4.03;;;3.60;;
41817;SDS011;27493;51.730;5.294;2023-04-30T13:31:56;4.77;;;3.80;;
41817;SDS011;27493;51.730;5.294;2023-04-30T13:34:22;4.40;;;3.80;;
41817;SDS011;27493;51.730;5.294;2023-04-30T13:36:47;4.40;;;4.00;;
41817;SDS011;27493;51.730;5.294;2023-04-30T13:39:12;4.83;;;4.00;;
41817;SDS011;27493;51.730;5.294;2023-04-30T13:41:37;4.80;;;4.07;;
41817;SDS011;27493;51.730;5.294;2023-04-30T13:44:03;8.50;;;4.20;;
41817;SDS011;27493;51.730;5.294;2023-04-30T13:46:28;4.73;;;4.23;;
41817;SDS011;27493;51.730;5.294;2023-04-30T13:48:54;5.20;;;4.00;;
41817;SDS011;27493;51.730;5.294;2023-04-30T13:51:20;4.00;;;3.60;;
41817;SDS011;27493;51.730;5.294;2023-04-30T13:53:45;4.30;;;3.70;;
41817;SDS011;27493;51.730;5.294;2023-04-30T13:56:10;5.23;;;3.77;;
41817;SDS011;27493;51.730;5.294;2023-04-30T13:58:36;5.10;;;3.33;;
41817;SDS011;27493;51.730;5.294;2023-04-30T14:01:01;4.67;;;3.90;;
41817;SDS011;27493;51.730;5.294;2023-04-30T14:03:26;5.77;;;4.20;;
41817;SDS011;27493;51.730;5.294;2023-04-30T14:05:51;5.37;;;3.87;;
41817;SDS011;27493;51.730;5.294;2023-04-30T14:08:18;3.80;;;3.40;;
41817;SDS011;27493;51.730;5.294;2023-04-30T14:10:43;4.03;;;3.37;;
41817;SDS011;27493;51.730;5.294;2023-04-30T14:13:08;5.67;;;3.53;;
41817;SDS011;27493;51.730;5.294;2023-04-30T14:15:34;5.53;;;3.47;;
41817;SDS011;27493;51.730;5.294;2023-04-30T14:17:59;4.07;;;3.70;;
41817;SDS011;27493;51.730;5.294;2023-04-30T14:20:25;4.87;;;3.90;;
41817;SDS011;27493;51.730;5.294;2023-04-30T14:22:51;5.47;;;3.83;;
41817;SDS011;27493;51.730;5.294;2023-04-30T14:25:16;5.07;;;3.77;;
41817;SDS011;27493;51.730;5.294;2023-04-30T14:27:42;4.63;;;3.30;;
41817;SDS011;27493;51.730;5.294;2023-04-30T14:30:07;5.83;;;3.57;;
41817;SDS011;27493;51.730;5.294;2023-04-30T14:32:33;3.63;;;3.30;;
41817;SDS011;27493;51.730;5.294;2023-04-30T14:34:58;3.70;;;3.40;;
41817;SDS011;27493;51.730;5.294;2023-04-30T14:37:23;4.17;;;3.27;;
41817;SDS011;27493;51.730;5.294;2023-04-30T14:39:49;4.37;;;3.20;;
41817;SDS011;27493;51.730;5.294;2023-04-30T14:42:14;4.00;;;3.10;;
41817;SDS011;27493;51.730;5.294;2023-04-30T14:44:39;3.30;;;3.00;;
41817;SDS011;27493;51.730;5.294;2023-04-30T14:47:05;3.10;;;2.57;;
41817;SDS011;27493;51.730;5.294;2023-04-30T14:49:30;3.33;;;2.43;;
41817;SDS011;27493;51.730;5.294;2023-04-30T14:51:55;4.13;;;3.10;;
41817;SDS011;27493;51.730;5.294;2023-04-30T14:54:20;3.23;;;2.60;;
41817;SDS011;27493;51.730;5.294;2023-04-30T14:56:46;3.00;;;2.70;;
41817;SDS011;27493;51.730;5.294;2023-04-30T14:59:11;3.27;;;2.67;;